createdAt,value
2023-04-18T00:01:18.680Z,100.00
2023-04-18T00:03:47.225Z,100.00
2023-04-18T00:06:15.406Z,100.00
2023-04-18T00:08:43.314Z,100.00
2023-04-18T00:11:11.223Z,100.00
2023-04-18T00:13:40.275Z,100.00
2023-04-18T00:16:08.786Z,100.00
2023-04-18T00:18:37.202Z,100.00
2023-04-18T00:21:06.495Z,100.00
2023-04-18T00:23:35.189Z,100.00
2023-04-18T00:26:03.257Z,100.00
2023-04-18T00:28:31.214Z,100.00
2023-04-18T00:30:59.178Z,100.00
2023-04-18T00:33:27.159Z,100.00
2023-04-18T00:35:55.136Z,100.00
2023-04-18T00:38:23.072Z,100.00
2023-04-18T00:40:51.401Z,100.00
2023-04-18T00:43:23.386Z,100.00
2023-04-18T00:45:51.422Z,100.00
2023-04-18T00:48:20.527Z,100.00
2023-04-18T00:50:48.528Z,100.00
2023-04-18T00:53:16.855Z,100.00
2023-04-18T00:55:45.357Z,100.00
2023-04-18T00:58:13.712Z,100.00
2023-04-18T01:00:42.698Z,100.00
2023-04-18T01:03:15.301Z,100.00
2023-04-18T01:05:43.413Z,100.00
2023-04-18T01:08:11.779Z,100.00
2023-04-18T01:10:39.910Z,100.00
2023-04-18T01:13:20.494Z,100.00
2023-04-18T01:15:50.676Z,100.00
2023-04-18T01:18:19.051Z,100.00
2023-04-18T01:20:49.382Z,100.00
2023-04-18T01:23:18.602Z,100.00
2023-04-18T01:25:49.381Z,100.00
2023-04-18T01:28:21.609Z,100.00
2023-04-18T01:30:49.881Z,100.00
2023-04-18T01:33:17.999Z,100.00
2023-04-18T01:35:47.752Z,100.00
2023-04-18T01:38:15.844Z,100.00
2023-04-18T01:40:44.199Z,100.00
2023-04-18T01:43:12.203Z,100.00
2023-04-18T01:45:40.144Z,100.00
2023-04-18T01:48:09.969Z,100.00
2023-04-18T01:50:37.926Z,100.00
2023-04-18T01:53:06.110Z,100.00
2023-04-18T01:55:34.009Z,100.00
2023-04-18T01:58:01.980Z,100.00
2023-04-18T02:00:30.190Z,100.00
2023-04-18T02:02:59.556Z,100.00
2023-04-18T02:05:27.843Z,100.00
2023-04-18T02:07:56.021Z,100.00
2023-04-18T02:10:24.105Z,100.00
2023-04-18T02:12:52.067Z,100.00
2023-04-18T02:15:20.933Z,100.00
2023-04-18T02:17:49.169Z,100.00
2023-04-18T02:20:17.157Z,100.00
2023-04-18T02:22:45.129Z,100.00
2023-04-18T02:25:13.038Z,100.00
2023-04-18T02:27:41.238Z,100.00
2023-04-18T02:30:09.653Z,100.00
2023-04-18T02:32:37.745Z,100.00
2023-04-18T02:35:06.180Z,100.00
2023-04-18T02:37:34.126Z,100.00
2023-04-18T02:40:02.127Z,100.00
2023-04-18T02:42:32.263Z,100.00
2023-04-18T02:45:02.289Z,100.00
2023-04-18T02:47:33.498Z,100.00
2023-04-18T02:50:09.269Z,100.00
2023-04-18T02:52:37.682Z,100.00
2023-04-18T02:55:05.997Z,100.00
2023-04-18T02:57:37.584Z,100.00
2023-04-18T03:00:13.681Z,100.00
2023-04-18T03:02:41.868Z,100.00
2023-04-18T03:05:30.198Z,100.00
2023-04-18T03:07:59.950Z,100.00
2023-04-18T03:10:29.016Z,100.00
2023-04-18T03:12:57.146Z,100.00
2023-04-18T03:15:28.245Z,100.00
2023-04-18T03:17:56.418Z,100.00
2023-04-18T03:20:24.954Z,100.00
2023-04-18T03:22:53.199Z,100.00
2023-04-18T03:25:24.876Z,100.00
2023-04-18T03:27:54.089Z,100.00
2023-04-18T03:30:23.478Z,100.00
2023-04-18T03:32:56.265Z,100.00
2023-04-18T03:35:24.458Z,100.00
2023-04-18T03:37:53.079Z,100.00
2023-04-18T03:40:30.297Z,100.00
2023-04-18T03:43:02.624Z,100.00
2023-04-18T03:45:30.685Z,100.00
2023-04-18T03:47:59.031Z,100.00
2023-04-18T03:50:27.210Z,100.00
2023-04-18T03:52:55.952Z,100.00
2023-04-18T03:55:23.919Z,100.00
2023-04-18T03:57:52.013Z,100.00
2023-04-18T04:00:26.228Z,100.00
2023-04-18T04:02:59.916Z,100.00
2023-04-18T04:05:28.290Z,100.00
2023-04-18T04:07:57.974Z,100.00
2023-04-18T04:10:25.942Z,100.00
2023-04-18T04:12:54.400Z,100.00
2023-04-18T04:15:22.664Z,100.00
2023-04-18T04:17:58.095Z,100.00
2023-04-18T04:20:26.845Z,100.00
2023-04-18T04:23:02.106Z,100.00
2023-04-18T04:25:34.102Z,100.00
2023-04-18T04:28:06.778Z,100.00
2023-04-18T04:30:41.748Z,100.00
2023-04-18T04:33:09.908Z,100.00
2023-04-18T04:35:38.947Z,100.00
2023-04-18T04:38:09.426Z,100.00
2023-04-18T04:40:43.692Z,100.00
2023-04-18T04:43:15.621Z,100.00
2023-04-18T04:45:45.226Z,100.00
2023-04-18T04:48:13.441Z,100.00
2023-04-18T04:50:51.705Z,100.00
2023-04-18T04:53:19.664Z,100.00
2023-04-18T04:55:48.402Z,100.00
2023-04-18T04:58:17.595Z,100.00
2023-04-18T05:01:10.060Z,100.00
2023-04-18T05:03:38.326Z,100.00
2023-04-18T05:06:06.614Z,100.00
2023-04-18T05:08:34.756Z,100.00
2023-04-18T05:11:02.722Z,100.00
2023-04-18T05:13:30.849Z,100.00
2023-04-18T05:15:59.334Z,100.00
2023-04-18T05:18:27.221Z,100.00
2023-04-18T05:20:56.007Z,100.00
2023-04-18T05:23:24.063Z,100.00
2023-04-18T05:25:52.471Z,100.00
2023-04-18T05:28:20.733Z,100.00
2023-04-18T05:30:48.926Z,100.00
2023-04-18T05:33:17.346Z,100.00
2023-04-18T05:35:47.454Z,100.00
2023-04-18T05:38:15.555Z,100.00
2023-04-18T05:40:43.797Z,100.00
2023-04-18T05:43:11.704Z,100.00
2023-04-18T05:45:39.640Z,100.00
2023-04-18T05:48:07.568Z,100.00
2023-04-18T05:50:35.556Z,100.00
2023-04-18T05:53:03.729Z,100.00
2023-04-18T05:55:31.873Z,100.00
2023-04-18T05:57:59.922Z,100.00
2023-04-18T06:00:28.476Z,100.00
2023-04-18T06:02:56.763Z,100.00
2023-04-18T06:05:25.203Z,100.00
2023-04-18T06:07:53.404Z,100.00
2023-04-18T06:10:21.464Z,100.00
2023-04-18T06:12:49.374Z,100.00
2023-04-18T06:15:17.456Z,100.00
2023-04-18T06:17:45.532Z,100.00
2023-04-18T06:20:13.584Z,99.96
2023-04-18T06:22:41.539Z,100.00
2023-04-18T06:25:10.223Z,100.00
2023-04-18T06:27:38.634Z,100.00
2023-04-18T06:30:08.029Z,100.00
2023-04-18T06:32:36.182Z,99.99
2023-04-18T06:35:04.588Z,99.95
2023-04-18T06:37:32.538Z,99.97
2023-04-18T06:40:00.482Z,99.48
2023-04-18T06:42:28.449Z,99.59
2023-04-18T06:44:56.806Z,99.45
2023-04-18T06:47:24.851Z,99.43
2023-04-18T06:49:52.781Z,99.30
2023-04-18T06:52:20.802Z,98.92
2023-04-18T06:54:48.737Z,98.75
2023-04-18T06:57:16.698Z,98.56
2023-04-18T06:59:44.680Z,98.57
2023-04-18T07:02:13.071Z,98.77
2023-04-18T07:04:41.604Z,98.76
2023-04-18T07:07:09.709Z,98.99
2023-04-18T07:09:37.640Z,98.38
2023-04-18T07:12:05.862Z,97.81
2023-04-18T07:14:34.315Z,98.11
2023-04-18T07:17:02.539Z,97.45
2023-04-18T07:19:30.712Z,97.52
2023-04-18T07:21:58.642Z,97.25
2023-04-18T07:24:26.747Z,97.28
2023-04-18T07:26:55.219Z,97.29
2023-04-18T07:29:23.337Z,96.94
2023-04-18T07:31:51.712Z,96.83
2023-04-18T07:34:19.726Z,97.28
2023-04-18T07:36:47.921Z,96.43
2023-04-18T07:39:15.917Z,96.32
2023-04-18T07:42:04.248Z,95.87
2023-04-18T07:44:35.731Z,96.19
2023-04-18T07:47:03.955Z,95.80
2023-04-18T07:49:31.904Z,96.34
2023-04-18T07:51:59.762Z,95.68
2023-04-18T07:54:29.592Z,94.53
2023-04-18T07:57:00.030Z,94.51
2023-04-18T07:59:29.743Z,94.58
2023-04-18T08:01:58.160Z,94.63
2023-04-18T08:04:29.063Z,93.88
2023-04-18T08:06:58.022Z,93.40
2023-04-18T08:09:25.938Z,93.69
2023-04-18T08:11:56.162Z,92.40
2023-04-18T08:14:25.012Z,92.20
2023-04-18T08:16:53.139Z,92.29
2023-04-18T08:19:21.078Z,91.84
2023-04-18T08:21:51.263Z,92.02
2023-04-18T08:24:19.324Z,91.07
2023-04-18T08:26:47.250Z,90.71
2023-04-18T08:29:15.372Z,90.64
2023-04-18T08:31:43.417Z,89.56
2023-04-18T08:34:11.335Z,90.37
2023-04-18T08:36:39.225Z,87.76
2023-04-18T08:39:08.012Z,88.03
2023-04-18T08:41:39.956Z,88.60
2023-04-18T08:44:07.996Z,87.64
2023-04-18T08:46:36.205Z,87.25
2023-04-18T08:49:04.994Z,87.32
2023-04-18T08:51:34.069Z,84.64
2023-04-18T08:54:06.290Z,85.18
2023-04-18T08:56:37.438Z,84.52
2023-04-18T08:59:05.435Z,83.80
2023-04-18T09:01:59.077Z,82.96
2023-04-18T09:04:43.268Z,81.02
2023-04-18T09:07:18.130Z,79.97
2023-04-18T09:09:51.031Z,80.70
2023-04-18T09:12:22.784Z,81.00
2023-04-18T09:18:18.050Z,79.26
2023-04-18T09:20:46.879Z,78.51
2023-04-18T09:23:23.844Z,79.35
2023-04-18T09:25:51.680Z,78.88
2023-04-18T09:28:28.530Z,79.68
2023-04-18T09:30:57.360Z,77.80
2023-04-18T09:33:31.751Z,77.05
2023-04-18T09:36:20.990Z,76.43
2023-04-18T09:38:48.849Z,77.34
2023-04-18T09:41:17.782Z,77.01
2023-04-18T09:43:46.538Z,76.41
2023-04-18T09:46:14.369Z,76.33
2023-04-18T09:48:41.285Z,76.46
2023-04-18T09:51:15.361Z,75.77
2023-04-18T09:53:44.195Z,75.99
2023-04-18T09:56:27.398Z,76.04
2023-04-18T09:59:07.504Z,75.10
2023-04-18T10:01:35.179Z,75.42
2023-04-18T10:04:05.686Z,74.59
2023-04-18T10:06:34.257Z,72.44
2023-04-18T10:09:03.796Z,72.85
2023-04-18T10:11:31.533Z,73.22
2023-04-18T10:14:04.089Z,74.08
2023-04-18T10:16:33.394Z,71.72
2023-04-18T10:19:29.767Z,70.97
2023-04-18T10:21:58.275Z,71.91
2023-04-18T10:24:54.017Z,69.84
2023-04-18T10:27:48.689Z,70.48
2023-04-18T10:30:15.954Z,72.18
2023-04-18T10:32:42.870Z,69.51
2023-04-18T10:35:10.300Z,69.55
2023-04-18T10:37:50.665Z,70.07
2023-04-18T10:40:32.591Z,68.45
2023-04-18T10:42:59.467Z,68.41
2023-04-18T10:45:28.236Z,67.75
2023-04-18T10:48:24.464Z,67.11
2023-04-18T10:51:14.130Z,66.13
2023-04-18T10:53:55.830Z,66.60
2023-04-18T10:56:23.099Z,67.40
2023-04-18T10:58:52.059Z,67.38
2023-04-18T11:01:32.077Z,66.31
2023-04-18T11:04:00.367Z,65.66
2023-04-18T11:06:27.170Z,65.95
2023-04-18T11:09:13.529Z,64.85
2023-04-18T11:11:41.053Z,65.09
2023-04-18T11:14:07.826Z,63.21
2023-04-18T11:16:34.932Z,61.60
2023-04-18T11:19:18.874Z,61.16
2023-04-18T11:21:45.489Z,59.07
2023-04-18T11:24:20.923Z,60.72
2023-04-18T11:26:47.541Z,60.38
2023-04-18T11:29:17.064Z,60.87
2023-04-18T11:31:50.750Z,60.68
2023-04-18T11:34:17.360Z,61.77
2023-04-18T11:36:48.825Z,62.92
2023-04-18T11:39:15.534Z,62.34
2023-04-18T11:41:47.574Z,61.38
2023-04-18T11:44:15.003Z,61.35
2023-04-18T11:46:41.699Z,61.09
2023-04-18T11:49:27.738Z,62.29
2023-04-18T11:51:54.799Z,61.50
2023-04-18T11:54:44.148Z,61.70
2023-04-18T11:57:28.096Z,61.03
2023-04-18T11:59:57.274Z,61.61
2023-04-18T12:02:45.169Z,60.99
2023-04-18T12:05:23.564Z,60.84
2023-04-18T12:07:50.679Z,61.58
2023-04-18T12:10:20.293Z,62.22
2023-04-18T12:12:48.683Z,60.61
2023-04-18T12:15:17.120Z,60.33
2023-04-18T12:17:45.467Z,60.40
2023-04-18T12:20:12.973Z,60.07
2023-04-18T12:22:48.977Z,59.53
2023-04-18T12:25:25.937Z,59.74
2023-04-18T12:27:59.634Z,59.63
2023-04-18T12:30:26.144Z,58.84
2023-04-18T12:32:55.424Z,58.75
2023-04-18T12:35:22.764Z,57.93
2023-04-18T12:37:51.604Z,58.23
2023-04-18T12:40:19.681Z,59.13
2023-04-18T12:42:46.850Z,59.61
2023-04-18T12:45:15.038Z,59.83
2023-04-18T12:47:43.830Z,59.29
2023-04-18T12:50:14.560Z,59.02
2023-04-18T12:52:41.820Z,59.36
2023-04-18T12:55:09.600Z,58.64
2023-04-18T12:57:37.519Z,58.44
2023-04-18T13:00:09.893Z,58.78
2023-04-18T13:02:38.245Z,59.60
2023-04-18T13:05:07.513Z,59.13
2023-04-18T13:07:37.042Z,58.64
2023-04-18T13:10:04.565Z,58.23
2023-04-18T13:12:31.188Z,58.81
2023-04-18T13:14:57.775Z,57.76
2023-04-18T13:17:25.241Z,58.48
2023-04-18T13:19:51.957Z,58.41
2023-04-18T13:22:20.317Z,57.24
2023-04-18T13:24:47.597Z,56.38
2023-04-18T13:27:14.706Z,57.57
2023-04-18T13:29:43.173Z,57.52
2023-04-18T13:32:10.073Z,58.22
2023-04-18T13:34:39.237Z,56.89
2023-04-18T13:37:05.826Z,56.72
2023-04-18T13:39:33.410Z,56.84
2023-04-18T13:42:02.336Z,57.47
2023-04-18T13:44:32.392Z,57.51
2023-04-18T13:47:00.185Z,57.41
2023-04-18T13:49:27.244Z,58.16
2023-04-18T13:51:56.478Z,57.10
2023-04-18T13:54:25.940Z,57.93
2023-04-18T13:56:57.234Z,57.15
2023-04-18T13:59:27.025Z,57.93
2023-04-18T14:01:54.470Z,58.12
2023-04-18T14:04:21.823Z,58.80
2023-04-18T14:06:49.388Z,58.69
2023-04-18T14:09:16.773Z,58.56
2023-04-18T14:11:44.092Z,58.10
2023-04-18T14:14:10.772Z,57.66
2023-04-18T14:16:37.324Z,58.14
2023-04-18T14:19:03.983Z,57.62
2023-04-18T14:21:30.539Z,57.45
2023-04-18T14:23:57.218Z,56.58
2023-04-18T14:26:23.982Z,57.10
2023-04-18T14:28:50.796Z,56.70
2023-04-18T14:31:17.472Z,55.64
2023-04-18T14:33:44.823Z,56.79
2023-04-18T14:36:14.265Z,56.11
2023-04-18T14:38:41.964Z,55.45
2023-04-18T14:41:08.605Z,55.64
2023-04-18T14:43:35.230Z,55.21
2023-04-18T14:46:01.884Z,55.35
2023-04-18T14:48:29.218Z,54.35
2023-04-18T14:50:57.612Z,54.70
2023-04-18T14:53:25.602Z,54.82
2023-04-18T14:55:52.227Z,55.14
2023-04-18T14:58:19.142Z,55.23
2023-04-18T15:00:45.933Z,54.47
2023-04-18T15:03:12.571Z,55.17
2023-04-18T15:05:45.888Z,54.86
2023-04-18T15:08:13.867Z,54.85
2023-04-18T15:10:44.102Z,55.82
2023-04-18T15:13:10.948Z,55.97
2023-04-18T15:15:39.241Z,55.84
2023-04-18T15:18:07.435Z,55.23
2023-04-18T15:20:35.508Z,55.64
2023-04-18T15:23:02.368Z,56.21
2023-04-18T15:25:29.860Z,56.28
2023-04-18T15:27:57.681Z,56.59
2023-04-18T15:30:25.115Z,56.71
2023-04-18T15:32:53.364Z,56.82
2023-04-18T15:35:20.289Z,56.98
2023-04-18T15:37:46.925Z,57.32
2023-04-18T15:40:15.677Z,57.78
2023-04-18T15:42:43.033Z,57.95
2023-04-18T15:45:10.450Z,58.10
2023-04-18T15:47:37.980Z,58.13
2023-04-18T15:50:05.170Z,58.27
2023-04-18T15:52:31.796Z,58.40
2023-04-18T15:54:58.651Z,58.74
2023-04-18T15:57:25.212Z,58.73
2023-04-18T15:59:51.866Z,58.85
2023-04-18T16:02:18.468Z,59.06
2023-04-18T16:04:45.322Z,59.09
2023-04-18T16:07:12.061Z,59.15
2023-04-18T16:09:38.730Z,59.45
2023-04-18T16:12:06.768Z,59.50
2023-04-18T16:14:33.589Z,59.56
2023-04-18T16:17:00.184Z,59.71
2023-04-18T16:19:26.743Z,59.89
2023-04-18T16:21:53.323Z,60.02
2023-04-18T16:24:20.021Z,59.91
2023-04-18T16:26:46.647Z,60.09
2023-04-18T16:29:13.228Z,60.25
2023-04-18T16:31:41.014Z,60.39
2023-04-18T16:34:07.604Z,60.44
2023-04-18T16:36:34.210Z,60.50
2023-04-18T16:39:00.938Z,60.57
2023-04-18T16:41:27.574Z,60.97
2023-04-18T16:43:54.279Z,61.07
2023-04-18T16:46:20.912Z,61.12
2023-04-18T16:48:48.174Z,60.97
2023-04-18T16:51:15.757Z,61.15
2023-04-18T16:53:42.571Z,61.29
2023-04-18T16:56:09.197Z,61.28
2023-04-18T16:58:35.768Z,61.45
2023-04-18T17:01:02.460Z,61.46
2023-04-18T17:03:29.506Z,61.64
2023-04-18T17:05:56.422Z,61.34
2023-04-18T17:08:25.125Z,61.56
2023-04-18T17:10:52.166Z,62.13
2023-04-18T17:13:18.861Z,62.66
2023-04-18T17:15:45.721Z,63.10
2023-04-18T17:18:12.364Z,63.56
2023-04-18T17:20:39.115Z,64.02
2023-04-18T17:23:06.026Z,64.36
2023-04-18T17:25:32.624Z,64.97
2023-04-18T17:28:01.574Z,65.12
2023-04-18T17:30:28.780Z,65.49
2023-04-18T17:32:55.570Z,65.76
2023-04-18T17:35:22.273Z,65.79
2023-04-18T17:37:52.216Z,67.05
2023-04-18T17:40:19.012Z,67.13
2023-04-18T17:42:45.851Z,66.53
2023-04-18T17:45:12.487Z,66.21
2023-04-18T17:47:40.124Z,67.29
2023-04-18T17:50:07.650Z,66.99
2023-04-18T17:52:34.402Z,67.41
2023-04-18T17:55:01.072Z,67.59
2023-04-18T17:57:29.864Z,67.51
2023-04-18T17:59:56.629Z,68.01
2023-04-18T18:02:23.326Z,68.62
2023-04-18T18:04:50.849Z,68.71
2023-04-18T18:07:18.048Z,69.72
2023-04-18T18:09:44.978Z,69.17
2023-04-18T18:12:11.792Z,69.67
2023-04-18T18:14:39.924Z,69.78
2023-04-18T18:17:06.882Z,69.56
2023-04-18T18:19:35.645Z,70.12
2023-04-18T18:22:02.486Z,70.28
2023-04-18T18:24:29.255Z,70.35
2023-04-18T18:26:57.455Z,70.53
2023-04-18T18:29:24.839Z,70.70
2023-04-18T18:31:51.584Z,70.93
2023-04-18T18:34:19.406Z,71.57
2023-04-18T18:36:46.762Z,71.60
2023-04-18T18:39:15.721Z,71.74
2023-04-18T18:41:42.712Z,71.79
2023-04-18T18:44:09.475Z,71.54
2023-04-18T18:46:36.274Z,71.89
2023-04-18T18:49:03.177Z,72.29
2023-04-18T18:51:30.306Z,72.16
2023-04-18T18:53:57.286Z,71.85
2023-04-18T18:56:24.124Z,71.95
2023-04-18T18:58:53.138Z,72.11
2023-04-18T19:01:20.068Z,71.96
2023-04-18T19:03:47.804Z,72.24
2023-04-18T19:06:15.233Z,72.37
2023-04-18T19:08:41.820Z,72.65
2023-04-18T19:11:08.984Z,72.58
2023-04-18T19:13:35.856Z,72.28
2023-04-18T19:16:02.574Z,72.83
2023-04-18T19:18:29.649Z,73.21
2023-04-18T19:20:56.976Z,73.39
2023-04-18T19:23:24.873Z,73.60
2023-04-18T19:25:51.603Z,74.07
2023-04-18T19:28:18.621Z,74.09
2023-04-18T19:30:46.054Z,74.90
2023-04-18T19:33:12.968Z,74.13
2023-04-18T19:35:39.936Z,74.26
2023-04-18T19:38:06.742Z,74.40
2023-04-18T19:40:33.445Z,75.07
2023-04-18T19:43:00.185Z,74.86
2023-04-18T19:45:26.824Z,74.55
2023-04-18T19:47:53.414Z,74.69
2023-04-18T19:50:20.107Z,74.65
2023-04-18T19:52:47.510Z,74.77
2023-04-18T19:55:14.089Z,75.21
2023-04-18T19:57:41.658Z,75.26
2023-04-18T20:00:10.558Z,75.46
2023-04-18T20:02:41.998Z,75.38
2023-04-18T20:05:09.263Z,75.50
2023-04-18T20:07:36.098Z,75.62
2023-04-18T20:10:03.805Z,75.94
2023-04-18T20:12:30.876Z,76.05
2023-04-18T20:14:58.255Z,76.20
2023-04-18T20:17:25.547Z,75.98
2023-04-18T20:19:52.998Z,76.26
2023-04-18T20:22:19.678Z,76.38
2023-04-18T20:24:48.004Z,75.91
2023-04-18T20:27:18.429Z,76.36
2023-04-18T20:29:45.603Z,76.64
2023-04-18T20:32:12.398Z,76.83
2023-04-18T20:34:38.925Z,76.98
2023-04-18T20:37:09.407Z,76.96
2023-04-18T20:39:37.354Z,76.83
2023-04-18T20:42:04.346Z,77.20
2023-04-18T20:44:33.756Z,77.34
2023-04-18T20:47:01.276Z,77.00
2023-04-18T20:49:28.908Z,76.94
2023-04-18T20:51:55.479Z,77.17
2023-04-18T20:54:22.320Z,77.70
2023-04-18T20:56:48.834Z,77.47
2023-04-18T20:59:15.645Z,77.87
2023-04-18T21:01:42.210Z,77.85
2023-04-18T21:04:09.526Z,77.90
2023-04-18T21:06:36.112Z,77.83
2023-04-18T21:09:03.222Z,78.03
2023-04-18T21:11:30.045Z,78.60
2023-04-18T21:13:56.636Z,78.61
2023-04-18T21:16:23.787Z,78.53
2023-04-18T21:18:50.615Z,78.56
2023-04-18T21:21:17.283Z,78.45
2023-04-18T21:23:44.607Z,78.50
2023-04-18T21:26:12.815Z,78.66
2023-04-18T21:28:55.960Z,79.04
2023-04-18T21:31:23.215Z,78.75
2023-04-18T21:33:54.663Z,79.30
2023-04-18T21:36:22.895Z,79.44
2023-04-18T21:38:54.101Z,79.40
2023-04-18T21:41:21.543Z,79.75
2023-04-18T21:43:48.816Z,79.87
2023-04-18T21:46:16.269Z,79.53
2023-04-18T21:48:45.383Z,80.23
2023-04-18T21:51:13.867Z,80.19
2023-04-18T21:53:41.205Z,80.61
2023-04-18T21:56:08.339Z,81.00
2023-04-18T21:58:35.117Z,80.96
2023-04-18T22:01:02.057Z,81.12
2023-04-18T22:03:29.375Z,80.63
2023-04-18T22:05:56.859Z,81.36
2023-04-18T22:08:27.744Z,80.90
2023-04-18T22:10:55.848Z,81.21
2023-04-18T22:13:22.942Z,81.31
2023-04-18T22:15:51.025Z,81.88
2023-04-18T22:18:18.303Z,81.96
2023-04-18T22:20:46.563Z,81.85
2023-04-18T22:23:13.744Z,81.99
2023-04-18T22:25:40.561Z,83.05
2023-04-18T22:28:07.377Z,82.80
2023-04-18T22:30:34.045Z,82.83
2023-04-18T22:33:00.667Z,82.84
2023-04-18T22:35:27.480Z,84.12
2023-04-18T22:37:54.944Z,83.97
2023-04-18T22:40:21.711Z,83.89
2023-04-18T22:42:51.096Z,83.83
2023-04-18T22:45:18.841Z,84.18
2023-04-18T22:47:46.006Z,84.65
2023-04-18T22:50:13.401Z,84.57
2023-04-18T22:52:40.558Z,84.57
2023-04-18T22:55:08.159Z,84.65
2023-04-18T22:57:34.848Z,85.39
2023-04-18T23:00:01.715Z,84.99
2023-04-18T23:02:28.546Z,85.27
2023-04-18T23:04:58.306Z,85.04
2023-04-18T23:07:25.128Z,85.69
2023-04-18T23:09:51.679Z,86.04
2023-04-18T23:12:18.269Z,85.80
2023-04-18T23:14:45.210Z,86.29
2023-04-18T23:17:11.773Z,86.11
2023-04-18T23:19:38.316Z,87.22
2023-04-18T23:22:05.369Z,86.62
2023-04-18T23:24:31.979Z,86.96
2023-04-18T23:26:58.711Z,86.58
2023-04-18T23:29:25.485Z,87.06
2023-04-18T23:31:52.079Z,87.42
2023-04-18T23:34:18.682Z,87.26
2023-04-18T23:36:46.189Z,87.22
2023-04-18T23:39:12.897Z,87.13
2023-04-18T23:41:39.569Z,87.27
2023-04-18T23:44:06.191Z,87.24
2023-04-18T23:46:34.390Z,87.64
2023-04-18T23:49:03.012Z,88.02
2023-04-18T23:51:30.406Z,88.20
2023-04-18T23:53:57.109Z,88.30
2023-04-18T23:56:23.858Z,88.60
2023-04-18T23:58:50.410Z,88.47
